WWA3311 KBPT-KFTW
Flight info
| Callsign | WWA3311 |
|---|---|
| Flight time | 1h 4m |
| Altitude | 16000 |
| Route | SILBE T485 ROMER DODJE REEKO3 |
| Aircraft | E55P/M-SBDFGHJ2RWY/LB2 |
Departure
| Time | 2026-04-20 15:11 |
|---|---|
| Airport | Jack Brooks Regional Airport (KBPT) |
Arrival
| Time | 2026-04-20 16:16 |
|---|---|
| Airport | Fort Worth Meacham International Airport (KFTW) |
| Time | Latitude | Longitude | Altitude | Speed | Heading |
|---|---|---|---|---|---|
| 2026-04-20 15:06 | 29.95573 | -94.02230 | 14 ft | 0 kts | 118° |
| 2026-04-20 15:09 | 29.95572 | -94.02229 | 14 ft | 1 kts | 118° |
| 2026-04-20 15:09 | 29.95552 | -94.02223 | 14 ft | 5 kts | 235° |
| 2026-04-20 15:09 | 29.95544 | -94.02293 | 14 ft | 11 kts | 266° |
| 2026-04-20 15:09 | 29.95558 | -94.02402 | 14 ft | 16 kts | 283° |
| 2026-04-20 15:10 | 29.95589 | -94.02552 | 14 ft | 21 kts | 287° |
| 2026-04-20 15:10 | 29.95604 | -94.02713 | 14 ft | 13 kts | 226° |
| 2026-04-20 15:10 | 29.95524 | -94.02736 | 14 ft | 12 kts | 143° |
| 2026-04-20 15:10 | 29.95488 | -94.02691 | 14 ft | 0 kts | 122° |
| 2026-04-20 15:11 | 29.95424 | -94.02566 | 14 ft | 57 kts | 120° |
| 2026-04-20 15:11 | 29.94986 | -94.01938 | 11 ft | 124 kts | 128° |
| 2026-04-20 15:11 | 29.94379 | -94.01104 | 399 ft | 148 kts | 123° |
| 2026-04-20 15:11 | 29.93878 | -93.99960 | 918 ft | 169 kts | 91° |
| 2026-04-20 15:12 | 29.94363 | -93.98713 | 1917 ft | 172 kts | 45° |
| 2026-04-20 15:12 | 29.95599 | -93.98167 | 2638 ft | 198 kts | 4° |
| 2026-04-20 15:12 | 29.96887 | -93.98547 | 3753 ft | 198 kts | 338° |
| 2026-04-20 15:12 | 29.98135 | -93.99361 | 4621 ft | 209 kts | 330° |
| 2026-04-20 15:13 | 29.99357 | -94.00314 | 5880 ft | 187 kts | 331° |
| 2026-04-20 15:13 | 30.00421 | -94.01135 | 6612 ft | 196 kts | 330° |
| 2026-04-20 15:13 | 30.01599 | -94.02032 | 7395 ft | 205 kts | 330° |
| 2026-04-20 15:13 | 30.02900 | -94.03013 | 8207 ft | 215 kts | 330° |
| 2026-04-20 15:14 | 30.04232 | -94.03993 | 8995 ft | 226 kts | 330° |
| 2026-04-20 15:14 | 30.05613 | -94.04985 | 9768 ft | 236 kts | 330° |
| 2026-04-20 15:14 | 30.07065 | -94.06001 | 10539 ft | 247 kts | 330° |
| 2026-04-20 15:14 | 30.08653 | -94.07093 | 11278 ft | 261 kts | 330° |
| 2026-04-20 15:15 | 30.10098 | -94.08076 | 11860 ft | 274 kts | 330° |
| 2026-04-20 15:15 | 30.11087 | -94.08745 | 12240 ft | 283 kts | 330° |
| 2026-04-20 15:15 | 30.12847 | -94.09971 | 12891 ft | 296 kts | 330° |
| 2026-04-20 15:15 | 30.14746 | -94.11002 | 13538 ft | 308 kts | 337° |
| 2026-04-20 15:16 | 30.16778 | -94.11975 | 14191 ft | 319 kts | 339° |
| 2026-04-20 15:16 | 30.18939 | -94.12986 | 14858 ft | 330 kts | 338° |
| 2026-04-20 15:16 | 30.21311 | -94.14098 | 15567 ft | 339 kts | 338° |
| 2026-04-20 15:16 | 30.23573 | -94.15158 | 15958 ft | 353 kts | 338° |
| 2026-04-20 15:17 | 30.25959 | -94.16275 | 15999 ft | 346 kts | 337° |
| 2026-04-20 15:17 | 30.28357 | -94.17400 | 16004 ft | 340 kts | 337° |
| 2026-04-20 15:17 | 30.30776 | -94.18535 | 16005 ft | 335 kts | 336° |
| 2026-04-20 15:17 | 30.32898 | -94.19534 | 16004 ft | 331 kts | 336° |
| 2026-04-20 15:18 | 30.35189 | -94.20612 | 16004 ft | 328 kts | 336° |
| 2026-04-20 15:18 | 30.37495 | -94.21697 | 16005 ft | 325 kts | 336° |
| 2026-04-20 15:18 | 30.39758 | -94.22762 | 16007 ft | 322 kts | 336° |
| 2026-04-20 15:18 | 30.41832 | -94.23736 | 16012 ft | 320 kts | 336° |
| 2026-04-20 15:19 | 30.44052 | -94.24780 | 16013 ft | 319 kts | 336° |
| 2026-04-20 15:19 | 30.46281 | -94.25830 | 16013 ft | 318 kts | 336° |
| 2026-04-20 15:19 | 30.48414 | -94.26835 | 16011 ft | 317 kts | 336° |
| 2026-04-20 15:19 | 30.50527 | -94.27831 | 16010 ft | 316 kts | 336° |
| 2026-04-20 15:20 | 30.52723 | -94.28867 | 16011 ft | 315 kts | 336° |
| 2026-04-20 15:20 | 30.54911 | -94.29900 | 16011 ft | 314 kts | 336° |
| 2026-04-20 15:20 | 30.56986 | -94.30880 | 16012 ft | 314 kts | 336° |
| 2026-04-20 15:20 | 30.59024 | -94.31843 | 16012 ft | 313 kts | 336° |
| 2026-04-20 15:21 | 30.61144 | -94.32845 | 16013 ft | 312 kts | 336° |
| 2026-04-20 15:21 | 30.63359 | -94.33894 | 16013 ft | 312 kts | 336° |
| 2026-04-20 15:21 | 30.65389 | -94.34853 | 16014 ft | 312 kts | 336° |
| 2026-04-20 15:21 | 30.67511 | -94.35858 | 16015 ft | 311 kts | 336° |
| 2026-04-20 15:22 | 30.69769 | -94.36928 | 16015 ft | 311 kts | 336° |
| 2026-04-20 15:22 | 30.71813 | -94.37897 | 16016 ft | 311 kts | 336° |
| 2026-04-20 15:22 | 30.73902 | -94.38897 | 16016 ft | 310 kts | 333° |
| 2026-04-20 15:22 | 30.75653 | -94.40563 | 16033 ft | 305 kts | 307° |
| 2026-04-20 15:23 | 30.77162 | -94.42703 | 16024 ft | 305 kts | 309° |
| 2026-04-20 15:23 | 30.78498 | -94.44563 | 16021 ft | 305 kts | 309° |
| 2026-04-20 15:23 | 30.79923 | -94.46542 | 16022 ft | 305 kts | 309° |
| 2026-04-20 15:23 | 30.81412 | -94.48609 | 16022 ft | 305 kts | 309° |
| 2026-04-20 15:24 | 30.82850 | -94.50607 | 16022 ft | 305 kts | 309° |
| 2026-04-20 15:24 | 30.84240 | -94.52538 | 16023 ft | 305 kts | 309° |
| 2026-04-20 15:24 | 30.85659 | -94.54510 | 16024 ft | 305 kts | 309° |
| 2026-04-20 15:24 | 30.87176 | -94.56620 | 16024 ft | 305 kts | 309° |
| 2026-04-20 15:25 | 30.88549 | -94.58530 | 16024 ft | 305 kts | 309° |
| 2026-04-20 15:25 | 30.89953 | -94.60484 | 16027 ft | 305 kts | 309° |
| 2026-04-20 15:25 | 30.91460 | -94.62582 | 16029 ft | 305 kts | 309° |
| 2026-04-20 15:25 | 30.92875 | -94.64554 | 16031 ft | 305 kts | 309° |
| 2026-04-20 15:26 | 30.93593 | -94.65555 | 16033 ft | 305 kts | 308° |
| 2026-04-20 15:26 | 30.94896 | -94.67371 | 16034 ft | 305 kts | 308° |
| 2026-04-20 15:26 | 30.96368 | -94.69426 | 16032 ft | 305 kts | 308° |
| 2026-04-20 15:26 | 30.97720 | -94.71313 | 16032 ft | 305 kts | 308° |
| 2026-04-20 15:27 | 30.99093 | -94.73231 | 16031 ft | 304 kts | 308° |
| 2026-04-20 15:27 | 31.00489 | -94.75182 | 16032 ft | 303 kts | 308° |
| 2026-04-20 15:27 | 31.02014 | -94.77312 | 16033 ft | 302 kts | 308° |
| 2026-04-20 15:27 | 31.03344 | -94.79175 | 16036 ft | 302 kts | 309° |
| 2026-04-20 15:28 | 31.04765 | -94.81162 | 16035 ft | 301 kts | 308° |
| 2026-04-20 15:28 | 31.06208 | -94.83184 | 16038 ft | 301 kts | 308° |
| 2026-04-20 15:28 | 31.07653 | -94.85207 | 16038 ft | 301 kts | 308° |
| 2026-04-20 15:28 | 31.09006 | -94.87103 | 16037 ft | 300 kts | 308° |
| 2026-04-20 15:29 | 31.10291 | -94.88905 | 16037 ft | 300 kts | 308° |
| 2026-04-20 15:29 | 31.11178 | -94.90150 | 16036 ft | 300 kts | 308° |
| 2026-04-20 15:29 | 31.11551 | -94.90672 | 16035 ft | 300 kts | 308° |
| 2026-04-20 15:29 | 31.12801 | -94.92427 | 16034 ft | 300 kts | 308° |
| 2026-04-20 15:30 | 31.13788 | -94.93813 | 16034 ft | 299 kts | 308° |
| 2026-04-20 15:30 | 31.14971 | -94.95475 | 16034 ft | 299 kts | 308° |
| 2026-04-20 15:30 | 31.16303 | -94.97347 | 16036 ft | 299 kts | 308° |
| 2026-04-20 15:30 | 31.17522 | -94.99061 | 16033 ft | 299 kts | 308° |
| 2026-04-20 15:31 | 31.18947 | -95.01065 | 16032 ft | 298 kts | 308° |
| 2026-04-20 15:31 | 31.20266 | -95.02922 | 16032 ft | 298 kts | 308° |
| 2026-04-20 15:31 | 31.21719 | -95.04967 | 16031 ft | 298 kts | 308° |
| 2026-04-20 15:31 | 31.23198 | -95.07050 | 16030 ft | 298 kts | 308° |
| 2026-04-20 15:32 | 31.24582 | -95.09000 | 16029 ft | 298 kts | 308° |
| 2026-04-20 15:32 | 31.25906 | -95.10868 | 16029 ft | 298 kts | 308° |
| 2026-04-20 15:32 | 31.27380 | -95.12947 | 16027 ft | 298 kts | 308° |
| 2026-04-20 15:32 | 31.28849 | -95.15022 | 16026 ft | 298 kts | 308° |
| 2026-04-20 15:33 | 31.30272 | -95.17032 | 16026 ft | 298 kts | 308° |
| 2026-04-20 15:33 | 31.31618 | -95.18934 | 16025 ft | 298 kts | 308° |
| 2026-04-20 15:33 | 31.33066 | -95.20982 | 16026 ft | 298 kts | 308° |
| 2026-04-20 15:33 | 31.34543 | -95.23072 | 16025 ft | 298 kts | 308° |
| 2026-04-20 15:34 | 31.35944 | -95.25054 | 16024 ft | 298 kts | 308° |
| 2026-04-20 15:34 | 31.37297 | -95.26971 | 16023 ft | 298 kts | 308° |
| 2026-04-20 15:34 | 31.38756 | -95.29039 | 16024 ft | 298 kts | 308° |
| 2026-04-20 15:34 | 31.40222 | -95.31117 | 16024 ft | 299 kts | 308° |
| 2026-04-20 15:35 | 31.41629 | -95.33111 | 16023 ft | 299 kts | 308° |
| 2026-04-20 15:35 | 31.42955 | -95.34994 | 16020 ft | 299 kts | 308° |
| 2026-04-20 15:35 | 31.44431 | -95.37090 | 16019 ft | 300 kts | 308° |
| 2026-04-20 15:35 | 31.45892 | -95.39165 | 16018 ft | 300 kts | 308° |
| 2026-04-20 15:36 | 31.47292 | -95.41155 | 16018 ft | 300 kts | 308° |
| 2026-04-20 15:36 | 31.48649 | -95.43084 | 16014 ft | 300 kts | 308° |
| 2026-04-20 15:36 | 31.50172 | -95.45252 | 16013 ft | 300 kts | 308° |
| 2026-04-20 15:36 | 31.51662 | -95.47372 | 16012 ft | 300 kts | 308° |
| 2026-04-20 15:37 | 31.53090 | -95.49406 | 16012 ft | 300 kts | 309° |
| 2026-04-20 15:37 | 31.54399 | -95.51272 | 16014 ft | 300 kts | 308° |
| 2026-04-20 15:37 | 31.55803 | -95.53274 | 16015 ft | 300 kts | 309° |
| 2026-04-20 15:37 | 31.57256 | -95.55347 | 16015 ft | 300 kts | 309° |
| 2026-04-20 15:38 | 31.58659 | -95.57350 | 16016 ft | 300 kts | 309° |
| 2026-04-20 15:38 | 31.59997 | -95.59260 | 16016 ft | 300 kts | 309° |
| 2026-04-20 15:38 | 31.61421 | -95.61288 | 16016 ft | 300 kts | 309° |
| 2026-04-20 15:38 | 31.62921 | -95.63429 | 16017 ft | 301 kts | 309° |
| 2026-04-20 15:39 | 31.64243 | -95.65320 | 16018 ft | 301 kts | 308° |
| 2026-04-20 15:39 | 31.65254 | -95.66767 | 16021 ft | 301 kts | 308° |
| 2026-04-20 15:39 | 31.66518 | -95.68576 | 16022 ft | 302 kts | 308° |
| 2026-04-20 15:39 | 31.67898 | -95.70554 | 16022 ft | 302 kts | 308° |
| 2026-04-20 15:40 | 31.69220 | -95.72448 | 16023 ft | 302 kts | 308° |
| 2026-04-20 15:40 | 31.70606 | -95.74436 | 16024 ft | 303 kts | 308° |
| 2026-04-20 15:40 | 31.72004 | -95.76441 | 16025 ft | 303 kts | 308° |
| 2026-04-20 15:40 | 31.73477 | -95.78555 | 16025 ft | 303 kts | 308° |
| 2026-04-20 15:41 | 31.74818 | -95.80481 | 16026 ft | 304 kts | 308° |
| 2026-04-20 15:41 | 31.76190 | -95.82453 | 16026 ft | 304 kts | 308° |
| 2026-04-20 15:41 | 31.77657 | -95.84562 | 16026 ft | 304 kts | 308° |
| 2026-04-20 15:41 | 31.79063 | -95.86586 | 16026 ft | 305 kts | 308° |
| 2026-04-20 15:42 | 31.80441 | -95.88569 | 16026 ft | 305 kts | 308° |
| 2026-04-20 15:42 | 31.81832 | -95.90572 | 16026 ft | 305 kts | 308° |
| 2026-04-20 15:42 | 31.83343 | -95.92748 | 16025 ft | 305 kts | 308° |
| 2026-04-20 15:42 | 31.84676 | -95.94670 | 16025 ft | 305 kts | 308° |
| 2026-04-20 15:43 | 31.86074 | -95.96687 | 16022 ft | 306 kts | 308° |
| 2026-04-20 15:43 | 31.87499 | -95.98743 | 16021 ft | 305 kts | 308° |
| 2026-04-20 15:43 | 31.88939 | -96.00822 | 16020 ft | 305 kts | 308° |
| 2026-04-20 15:43 | 31.90312 | -96.02806 | 16020 ft | 305 kts | 308° |
| 2026-04-20 15:44 | 31.91711 | -96.04828 | 16021 ft | 305 kts | 308° |
| 2026-04-20 15:44 | 31.93207 | -96.06992 | 16021 ft | 305 kts | 308° |
| 2026-04-20 15:44 | 31.94538 | -96.08917 | 16020 ft | 306 kts | 308° |
| 2026-04-20 15:44 | 31.95936 | -96.10941 | 16020 ft | 306 kts | 308° |
| 2026-04-20 15:45 | 31.97382 | -96.13036 | 16020 ft | 306 kts | 308° |
| 2026-04-20 15:45 | 31.98799 | -96.15089 | 16020 ft | 306 kts | 308° |
| 2026-04-20 15:45 | 32.00162 | -96.17067 | 16020 ft | 306 kts | 308° |
| 2026-04-20 15:45 | 32.01541 | -96.19067 | 16019 ft | 306 kts | 308° |
| 2026-04-20 15:46 | 32.03048 | -96.21255 | 16019 ft | 306 kts | 308° |
| 2026-04-20 15:46 | 32.04384 | -96.23194 | 15790 ft | 313 kts | 308° |
| 2026-04-20 15:46 | 32.05860 | -96.25341 | 15431 ft | 323 kts | 308° |
| 2026-04-20 15:46 | 32.07377 | -96.27546 | 15054 ft | 322 kts | 308° |
| 2026-04-20 15:47 | 32.08878 | -96.29732 | 14672 ft | 321 kts | 308° |
| 2026-04-20 15:47 | 32.10277 | -96.31767 | 14317 ft | 320 kts | 308° |
| 2026-04-20 15:47 | 32.11700 | -96.33838 | 13958 ft | 319 kts | 308° |
| 2026-04-20 15:47 | 32.13201 | -96.36025 | 13579 ft | 317 kts | 308° |
| 2026-04-20 15:48 | 32.14606 | -96.38076 | 13225 ft | 316 kts | 308° |
| 2026-04-20 15:48 | 32.16073 | -96.40216 | 12856 ft | 315 kts | 308° |
| 2026-04-20 15:48 | 32.17510 | -96.42313 | 12486 ft | 314 kts | 308° |
| 2026-04-20 15:48 | 32.19022 | -96.44521 | 12103 ft | 312 kts | 308° |
| 2026-04-20 15:49 | 32.20387 | -96.46517 | 11751 ft | 311 kts | 308° |
| 2026-04-20 15:49 | 32.21833 | -96.48632 | 11372 ft | 310 kts | 308° |
| 2026-04-20 15:49 | 32.23296 | -96.50771 | 10992 ft | 305 kts | 308° |
| 2026-04-20 15:49 | 32.24688 | -96.52808 | 10626 ft | 294 kts | 308° |
| 2026-04-20 15:50 | 32.25960 | -96.54672 | 10280 ft | 283 kts | 308° |
| 2026-04-20 15:50 | 32.27285 | -96.56612 | 9983 ft | 280 kts | 308° |
| 2026-04-20 15:50 | 32.28588 | -96.58591 | 9678 ft | 276 kts | 302° |
| 2026-04-20 15:50 | 32.29573 | -96.60618 | 9399 ft | 273 kts | 299° |
| 2026-04-20 15:51 | 32.30553 | -96.62623 | 9117 ft | 271 kts | 299° |
| 2026-04-20 15:51 | 32.31552 | -96.64671 | 8827 ft | 270 kts | 299° |
| 2026-04-20 15:51 | 32.32578 | -96.66773 | 8528 ft | 268 kts | 298° |
| 2026-04-20 15:51 | 32.33297 | -96.68793 | 8251 ft | 265 kts | 282° |
| 2026-04-20 15:52 | 32.33795 | -96.71030 | 7966 ft | 264 kts | 283° |
| 2026-04-20 15:52 | 32.34301 | -96.73238 | 7679 ft | 263 kts | 283° |
| 2026-04-20 15:52 | 32.34831 | -96.75542 | 7378 ft | 262 kts | 283° |
| 2026-04-20 15:53 | 32.35816 | -96.79816 | 6816 ft | 260 kts | 283° |
| 2026-04-20 15:53 | 32.36336 | -96.82072 | 6519 ft | 259 kts | 283° |
| 2026-04-20 15:53 | 32.36845 | -96.84288 | 6225 ft | 258 kts | 283° |
| 2026-04-20 15:53 | 32.37329 | -96.86388 | 5946 ft | 258 kts | 283° |
| 2026-04-20 15:54 | 32.37825 | -96.88547 | 5658 ft | 257 kts | 283° |
| 2026-04-20 15:54 | 32.38335 | -96.90767 | 5361 ft | 256 kts | 283° |
| 2026-04-20 15:54 | 32.38820 | -96.92883 | 5075 ft | 255 kts | 283° |
| 2026-04-20 15:54 | 32.39305 | -96.94998 | 4788 ft | 254 kts | 283° |
| 2026-04-20 15:55 | 32.39803 | -96.97176 | 4492 ft | 253 kts | 283° |
| 2026-04-20 15:55 | 32.40193 | -96.99447 | 4173 ft | 250 kts | 269° |
| 2026-04-20 15:55 | 32.40156 | -97.01499 | 4005 ft | 244 kts | 268° |
| 2026-04-20 15:55 | 32.40136 | -97.03555 | 3980 ft | 239 kts | 267° |
| 2026-04-20 15:56 | 32.40114 | -97.05631 | 3979 ft | 238 kts | 267° |
| 2026-04-20 15:56 | 32.40093 | -97.07751 | 3979 ft | 236 kts | 267° |
| 2026-04-20 15:56 | 32.40073 | -97.09717 | 3979 ft | 236 kts | 267° |
| 2026-04-20 15:56 | 32.40055 | -97.11756 | 3979 ft | 235 kts | 268° |
| 2026-04-20 15:57 | 32.40609 | -97.13711 | 3985 ft | 237 kts | 311° |
| 2026-04-20 15:57 | 32.42080 | -97.14676 | 4000 ft | 234 kts | 351° |
| 2026-04-20 15:57 | 32.43714 | -97.14992 | 3983 ft | 234 kts | 352° |
| 2026-04-20 15:57 | 32.45408 | -97.15318 | 3975 ft | 234 kts | 352° |
| 2026-04-20 15:58 | 32.47216 | -97.15664 | 3972 ft | 234 kts | 352° |
| 2026-04-20 15:58 | 32.48838 | -97.15974 | 3972 ft | 234 kts | 352° |
| 2026-04-20 15:58 | 32.50526 | -97.16296 | 3973 ft | 234 kts | 352° |
| 2026-04-20 15:58 | 32.52262 | -97.16625 | 3974 ft | 234 kts | 352° |
| 2026-04-20 15:59 | 32.54042 | -97.16959 | 3975 ft | 234 kts | 352° |
| 2026-04-20 15:59 | 32.55657 | -97.17261 | 3976 ft | 234 kts | 352° |
| 2026-04-20 15:59 | 32.57386 | -97.17586 | 3977 ft | 234 kts | 352° |
| 2026-04-20 15:59 | 32.59146 | -97.17915 | 3978 ft | 234 kts | 352° |
| 2026-04-20 16:00 | 32.60923 | -97.18246 | 3981 ft | 234 kts | 352° |
| 2026-04-20 16:00 | 32.62539 | -97.18549 | 3981 ft | 235 kts | 352° |
| 2026-04-20 16:00 | 32.64044 | -97.18831 | 3981 ft | 235 kts | 352° |
| 2026-04-20 16:00 | 32.65752 | -97.19150 | 3982 ft | 235 kts | 352° |
| 2026-04-20 16:01 | 32.67519 | -97.19482 | 3980 ft | 235 kts | 352° |
| 2026-04-20 16:01 | 32.69132 | -97.19785 | 3978 ft | 235 kts | 352° |
| 2026-04-20 16:01 | 32.70830 | -97.20103 | 3977 ft | 235 kts | 352° |
| 2026-04-20 16:01 | 32.72596 | -97.20434 | 3976 ft | 235 kts | 352° |
| 2026-04-20 16:02 | 32.74325 | -97.20756 | 3977 ft | 235 kts | 352° |
| 2026-04-20 16:02 | 32.75980 | -97.21060 | 3978 ft | 235 kts | 353° |
| 2026-04-20 16:02 | 32.77717 | -97.21367 | 3980 ft | 235 kts | 353° |
| 2026-04-20 16:02 | 32.79527 | -97.21669 | 3981 ft | 235 kts | 353° |
| 2026-04-20 16:03 | 32.81241 | -97.21941 | 3982 ft | 235 kts | 354° |
| 2026-04-20 16:03 | 32.82881 | -97.22189 | 3982 ft | 235 kts | 354° |
| 2026-04-20 16:03 | 32.84670 | -97.22446 | 3982 ft | 235 kts | 355° |
| 2026-04-20 16:03 | 32.86462 | -97.22687 | 3982 ft | 235 kts | 355° |
| 2026-04-20 16:04 | 32.88164 | -97.22903 | 3982 ft | 235 kts | 355° |
| 2026-04-20 16:04 | 32.89851 | -97.23159 | 3975 ft | 236 kts | 346° |
| 2026-04-20 16:04 | 32.91542 | -97.23791 | 3983 ft | 236 kts | 343° |
| 2026-04-20 16:04 | 32.93264 | -97.24424 | 3982 ft | 236 kts | 343° |
| 2026-04-20 16:05 | 32.94566 | -97.24837 | 3980 ft | 236 kts | 348° |
| 2026-04-20 16:05 | 32.96217 | -97.25304 | 3976 ft | 236 kts | 347° |
| 2026-04-20 16:05 | 32.97954 | -97.25796 | 3972 ft | 236 kts | 347° |
| 2026-04-20 16:05 | 32.99691 | -97.26288 | 3965 ft | 236 kts | 347° |
| 2026-04-20 16:06 | 33.01382 | -97.26765 | 3965 ft | 236 kts | 347° |
| 2026-04-20 16:06 | 33.03060 | -97.27240 | 3966 ft | 236 kts | 347° |
| 2026-04-20 16:06 | 33.04776 | -97.27723 | 3967 ft | 236 kts | 347° |
| 2026-04-20 16:06 | 33.06494 | -97.28205 | 3951 ft | 220 kts | 348° |
| 2026-04-20 16:07 | 33.07961 | -97.28595 | 3859 ft | 207 kts | 348° |
| 2026-04-20 16:07 | 33.09295 | -97.29261 | 3625 ft | 187 kts | 319° |
| 2026-04-20 16:07 | 33.10090 | -97.30504 | 3339 ft | 174 kts | 289° |
| 2026-04-20 16:07 | 33.10272 | -97.31934 | 3212 ft | 153 kts | 258° |
| 2026-04-20 16:08 | 33.09828 | -97.32974 | 3120 ft | 134 kts | 216° |
| 2026-04-20 16:08 | 33.08991 | -97.33435 | 2867 ft | 131 kts | 190° |
| 2026-04-20 16:08 | 33.07965 | -97.33562 | 2372 ft | 141 kts | 175° |
| 2026-04-20 16:08 | 33.06892 | -97.33459 | 2091 ft | 135 kts | 173° |
| 2026-04-20 16:09 | 33.06124 | -97.33792 | 2158 ft | 131 kts | 213° |
| 2026-04-20 16:09 | 33.05260 | -97.34551 | 1999 ft | 150 kts | 211° |
| 2026-04-20 16:09 | 33.04292 | -97.35306 | 1995 ft | 157 kts | 206° |
| 2026-04-20 16:09 | 33.03178 | -97.35973 | 1963 ft | 162 kts | 202° |
| 2026-04-20 16:10 | 33.02163 | -97.36537 | 1896 ft | 156 kts | 201° |
| 2026-04-20 16:10 | 33.01142 | -97.37083 | 1965 ft | 148 kts | 199° |
| 2026-04-20 16:10 | 33.00095 | -97.37571 | 1870 ft | 147 kts | 197° |
| 2026-04-20 16:10 | 32.99058 | -97.38026 | 1725 ft | 147 kts | 196° |
| 2026-04-20 16:11 | 32.98067 | -97.38281 | 1665 ft | 138 kts | 182° |
| 2026-04-20 16:11 | 32.97028 | -97.38373 | 1577 ft | 133 kts | 180° |
| 2026-04-20 16:11 | 32.96010 | -97.38445 | 1559 ft | 128 kts | 179° |
| 2026-04-20 16:11 | 32.95063 | -97.38382 | 1580 ft | 127 kts | 171° |
| 2026-04-20 16:12 | 32.94195 | -97.38241 | 1746 ft | 121 kts | 170° |
| 2026-04-20 16:12 | 32.93280 | -97.38053 | 1873 ft | 125 kts | 166° |
| 2026-04-20 16:12 | 32.92301 | -97.37871 | 1996 ft | 131 kts | 168° |
| 2026-04-20 16:12 | 32.91369 | -97.37676 | 2039 ft | 124 kts | 168° |
| 2026-04-20 16:13 | 32.90509 | -97.37537 | 2036 ft | 119 kts | 170° |
| 2026-04-20 16:13 | 32.89653 | -97.37393 | 1967 ft | 117 kts | 167° |
| 2026-04-20 16:13 | 32.88749 | -97.37201 | 1878 ft | 112 kts | 168° |
| 2026-04-20 16:13 | 32.87948 | -97.37056 | 1699 ft | 111 kts | 171° |
| 2026-04-20 16:14 | 32.87149 | -97.36971 | 1565 ft | 110 kts | 171° |
| 2026-04-20 16:14 | 32.86304 | -97.36820 | 1392 ft | 110 kts | 167° |
| 2026-04-20 16:14 | 32.85450 | -97.36660 | 1236 ft | 110 kts | 169° |
| 2026-04-20 16:14 | 32.84661 | -97.36535 | 1070 ft | 110 kts | 171° |
| 2026-04-20 16:15 | 32.83858 | -97.36395 | 904 ft | 110 kts | 169° |
| 2026-04-20 16:15 | 32.83064 | -97.36259 | 760 ft | 108 kts | 169° |
| 2026-04-20 16:15 | 32.82389 | -97.36141 | 688 ft | 93 kts | 170° |
| 2026-04-20 16:15 | 32.81888 | -97.36060 | 680 ft | 79 kts | 170° |
| 2026-04-20 16:16 | 32.81267 | -97.35948 | 665 ft | 8 kts | 124° |
| 2026-04-20 16:16 | 32.81262 | -97.35849 | 666 ft | 11 kts | 65° |
| 2026-04-20 16:16 | 32.81349 | -97.35839 | 668 ft | 13 kts | 356° |
| 2026-04-20 16:17 | 32.81457 | -97.35853 | 672 ft | 17 kts | 347° |
| 2026-04-20 16:17 | 32.81595 | -97.35878 | 676 ft | 22 kts | 352° |
| 2026-04-20 16:17 | 32.81798 | -97.35914 | 679 ft | 31 kts | 353° |
| 2026-04-20 16:17 | 32.81965 | -97.35934 | 683 ft | 8 kts | 34° |
| 2026-04-20 16:18 | 32.81986 | -97.35857 | 683 ft | 15 kts | 83° |
| 2026-04-20 16:18 | 32.82013 | -97.35710 | 684 ft | 16 kts | 54° |
| 2026-04-20 16:18 | 32.82080 | -97.35609 | 684 ft | 6 kts | 94° |
| 2026-04-20 16:18 | 32.82036 | -97.35558 | 682 ft | 2 kts | 140° |
| 2026-04-20 16:19 | 32.82034 | -97.35556 | 682 ft | 0 kts | 140° |